createdAt,value
2019-04-01T00:01:02.257Z,99.90
2019-04-01T00:03:35.144Z,99.90
2019-04-01T00:06:08.137Z,99.90
2019-04-01T00:08:40.952Z,99.90
2019-04-01T00:11:13.825Z,99.90
2019-04-01T00:13:46.801Z,99.90
2019-04-01T00:16:20.674Z,99.90
2019-04-01T00:19:02.997Z,99.90
2019-04-01T00:21:28.480Z,99.90
2019-04-01T00:24:01.452Z,99.90
2019-04-01T00:26:34.425Z,99.90
2019-04-01T00:29:07.441Z,99.90
2019-04-01T00:31:40.522Z,99.90
2019-04-01T00:34:13.571Z,99.90
2019-04-01T00:36:46.641Z,99.90
2019-04-01T00:39:19.612Z,99.90
2019-04-01T00:41:52.624Z,99.90
2019-04-01T00:44:25.700Z,99.90
2019-04-01T00:46:58.749Z,99.90
2019-04-01T00:49:31.712Z,99.90
2019-04-01T00:52:04.731Z,99.90
2019-04-01T00:54:37.784Z,99.90
2019-04-01T00:57:10.798Z,99.90
2019-04-01T00:59:43.846Z,99.90
2019-04-01T01:02:16.938Z,99.90
2019-04-01T01:04:49.960Z,99.90
2019-04-01T01:07:24.317Z,99.90
2019-04-01T01:09:57.281Z,99.90
2019-04-01T01:12:30.224Z,99.90
2019-04-01T01:15:03.816Z,99.90
2019-04-01T01:17:36.808Z,99.90
2019-04-01T01:20:09.892Z,99.90
2019-04-01T01:22:42.900Z,99.90
2019-04-01T01:25:15.866Z,99.90
2019-04-01T01:27:48.795Z,99.90
2019-04-01T01:30:21.689Z,99.90
2019-04-01T01:32:54.681Z,99.90
2019-04-01T01:35:27.655Z,99.90
2019-04-01T01:38:00.905Z,99.90
2019-04-01T01:40:33.805Z,99.90
2019-04-01T01:43:06.876Z,99.90
2019-04-01T01:45:40.716Z,99.90
2019-04-01T01:48:13.793Z,99.90
2019-04-01T01:50:46.840Z,99.90
2019-04-01T01:53:19.788Z,99.90
2019-04-01T01:55:52.770Z,99.90
2019-04-01T01:58:26.121Z,99.90
2019-04-01T02:00:59.173Z,99.90
2019-04-01T02:03:32.176Z,99.90
2019-04-01T02:06:05.231Z,99.90
2019-04-01T02:08:38.237Z,99.90
2019-04-01T02:11:11.148Z,99.90
2019-04-01T02:13:44.085Z,99.90
2019-04-01T02:16:17.132Z,99.90
2019-04-01T02:18:50.120Z,99.90
2019-04-01T02:21:23.038Z,99.90
2019-04-01T02:23:56.021Z,99.90
2019-04-01T02:26:29.068Z,99.90
2019-04-01T02:29:02.133Z,99.90
2019-04-01T02:31:35.198Z,99.90
2019-04-01T02:34:08.304Z,99.90
2019-04-01T02:36:41.344Z,99.90
2019-04-01T02:41:46.898Z,99.90
2019-04-01T02:46:52.533Z,99.90
2019-04-01T02:49:25.549Z,99.90
2019-04-01T02:51:58.590Z,99.90
2019-04-01T02:54:31.604Z,99.90
2019-04-01T02:57:04.654Z,99.90
2019-04-01T02:59:37.831Z,99.90
2019-04-01T03:02:10.797Z,99.90
2019-04-01T03:04:43.805Z,99.90
2019-04-01T03:07:16.871Z,99.90
2019-04-01T03:09:50.361Z,99.90
2019-04-01T03:12:23.318Z,99.90
2019-04-01T03:14:56.304Z,99.90
2019-04-01T03:32:45.800Z,99.90
2019-04-01T03:37:51.618Z,99.90
2019-04-01T03:40:24.714Z,99.90
2019-04-01T03:42:57.750Z,99.90
2019-04-01T03:45:30.822Z,99.90
2019-04-01T03:48:03.873Z,99.90
2019-04-01T03:50:36.865Z,99.90
2019-04-01T03:55:54.764Z,99.90
2019-04-01T03:58:27.719Z,99.90
2019-04-01T04:01:00.820Z,99.90
2019-04-01T04:03:33.868Z,99.90
2019-04-01T04:06:06.934Z,99.90
2019-04-01T04:08:39.958Z,99.90
2019-04-01T04:11:13.043Z,99.90
2019-04-01T04:13:46.137Z,99.90
2019-04-01T04:16:19.221Z,99.90
2019-04-01T04:21:24.813Z,99.90
2019-04-01T04:23:57.712Z,99.90
2019-04-01T04:31:36.035Z,99.90
2019-04-01T04:34:09.199Z,99.90
2019-04-01T04:39:14.838Z,99.90
2019-04-01T04:46:53.080Z,99.90
2019-04-01T04:59:36.297Z,99.90
2019-04-01T05:04:41.861Z,99.90
2019-04-01T05:07:14.788Z,99.90
2019-04-01T05:09:47.769Z,99.90
2019-04-01T05:12:20.703Z,99.90
2019-04-01T05:14:53.753Z,99.90
2019-04-01T05:17:26.856Z,99.90
2019-04-01T05:25:05.088Z,99.90
2019-04-01T05:40:21.140Z,99.90
2019-04-01T05:42:54.084Z,99.90
2019-04-01T05:45:27.083Z,99.90
2019-04-01T05:48:00.178Z,99.90
2019-04-01T05:50:33.148Z,99.90
2019-04-01T05:53:06.185Z,99.90
2019-04-01T05:55:39.553Z,99.90
2019-04-01T05:58:12.532Z,99.90
2019-04-01T06:00:45.355Z,99.90
2019-04-01T06:03:18.348Z,99.90
2019-04-01T06:05:51.408Z,99.90
2019-04-01T06:08:24.480Z,99.90
2019-04-01T06:10:57.456Z,99.90
2019-04-01T06:13:30.542Z,99.90
2019-04-01T06:16:03.778Z,99.90
2019-04-01T06:21:09.438Z,99.90
2019-04-01T06:23:42.425Z,99.90
2019-04-01T06:26:15.396Z,99.90
2019-04-01T06:28:48.314Z,99.90
2019-04-01T06:31:21.332Z,99.60
2019-04-01T06:36:27.221Z,97.90
2019-04-01T06:39:00.266Z,95.80
2019-04-01T06:41:33.244Z,95.50
2019-04-01T06:44:06.273Z,93.60
2019-04-01T06:46:39.289Z,93.30
2019-04-01T06:49:12.296Z,90.00
2019-04-01T06:51:45.284Z,84.80
2019-04-01T06:54:18.246Z,86.10
2019-04-01T06:56:51.155Z,75.70
2019-04-01T06:59:24.226Z,73.00
2019-04-01T07:01:57.284Z,67.80
2019-04-01T07:04:30.273Z,65.90
2019-04-01T07:07:17.863Z,65.50
2019-04-01T07:09:38.070Z,63.70
2019-04-01T07:12:11.150Z,61.80
2019-04-01T07:14:44.418Z,59.00
2019-04-01T07:17:17.424Z,60.50
2019-04-01T07:19:50.373Z,59.00
2019-04-01T07:22:23.455Z,58.10
2019-04-01T07:24:56.472Z,59.20
2019-04-01T07:27:29.592Z,55.60
2019-04-01T07:30:02.628Z,56.40
2019-04-01T07:32:35.664Z,56.20
2019-04-01T07:35:08.596Z,56.90
2019-04-01T07:37:41.564Z,57.40
2019-04-01T07:40:14.583Z,58.20
2019-04-01T07:42:47.708Z,57.30
2019-04-01T07:45:20.655Z,57.00
2019-04-01T07:47:53.607Z,55.70
2019-04-01T07:50:26.523Z,55.20
2019-04-01T07:52:59.504Z,54.50
2019-04-01T07:55:32.450Z,55.40
2019-04-01T07:58:05.536Z,55.60
2019-04-01T08:00:38.591Z,58.00
2019-04-01T08:03:11.478Z,57.60
2019-04-01T08:05:44.541Z,57.60
2019-04-01T08:08:17.391Z,59.60
2019-04-01T08:10:50.299Z,60.80
2019-04-01T08:13:23.201Z,62.40
2019-04-01T08:18:28.753Z,67.90
2019-04-01T08:21:01.805Z,73.50
2019-04-01T08:23:34.897Z,80.10
2019-04-01T08:28:40.376Z,88.00
2019-04-01T08:31:13.597Z,89.80
2019-04-01T08:33:50.035Z,90.80
2019-04-01T08:36:21.331Z,91.20
2019-04-01T08:38:55.530Z,91.40
2019-04-01T08:41:28.704Z,92.10
2019-04-01T08:44:03.350Z,92.50
2019-04-01T08:46:36.566Z,92.10
2019-04-01T08:49:09.613Z,92.20
2019-04-01T08:51:42.561Z,92.60
2019-04-01T08:54:15.604Z,92.80
2019-04-01T08:56:48.633Z,93.00
2019-04-01T08:59:21.588Z,93.10
2019-04-01T09:01:54.582Z,93.40
2019-04-01T09:04:27.612Z,93.20
2019-04-01T09:07:00.608Z,92.80
2019-04-01T09:09:33.569Z,92.70
2019-04-01T09:12:06.601Z,93.50
2019-04-01T09:14:39.746Z,92.40
2019-04-01T09:17:12.829Z,93.30
2019-04-01T09:19:45.811Z,92.60
2019-04-01T09:22:18.921Z,92.20
2019-04-01T09:24:51.904Z,93.20
2019-04-01T09:27:24.981Z,91.50
2019-04-01T09:29:57.978Z,91.80
2019-04-01T09:32:30.987Z,92.60
2019-04-01T09:35:04.556Z,93.00
2019-04-01T09:37:37.545Z,93.20
2019-04-01T09:40:10.440Z,93.20
2019-04-01T09:42:43.432Z,92.70
2019-04-01T09:45:16.389Z,92.50
2019-04-01T09:47:49.382Z,91.80
2019-04-01T09:50:22.276Z,92.20
2019-04-01T09:52:55.286Z,92.00
2019-04-01T09:55:28.303Z,91.90
2019-04-01T09:58:01.297Z,91.50
2019-04-01T10:00:34.268Z,90.70
2019-04-01T10:03:07.266Z,91.20
2019-04-01T10:05:40.230Z,90.90
2019-04-01T10:08:13.219Z,91.30
2019-04-01T10:10:46.202Z,90.60
2019-04-01T10:13:19.153Z,90.30
2019-04-01T10:15:52.231Z,92.10
2019-04-01T10:18:25.244Z,90.80
2019-04-01T10:20:58.304Z,90.30
2019-04-01T10:23:31.417Z,90.30
2019-04-01T10:26:04.457Z,90.70
2019-04-01T10:28:37.475Z,91.00
2019-04-01T10:31:10.513Z,91.40
2019-04-01T10:33:43.432Z,91.70
2019-04-01T10:36:16.413Z,91.00
2019-04-01T10:38:49.412Z,91.30
2019-04-01T10:41:22.453Z,91.10
2019-04-01T10:43:55.547Z,91.10
2019-04-01T10:46:28.473Z,91.60
2019-04-01T10:49:01.675Z,91.20
2019-04-01T10:51:34.706Z,91.30
2019-04-01T10:54:07.799Z,90.90
2019-04-01T10:56:40.915Z,90.60
2019-04-01T10:59:13.918Z,90.60
2019-04-01T11:01:46.934Z,90.10
2019-04-01T11:04:19.872Z,91.00
2019-04-01T11:06:53.790Z,89.70
2019-04-01T11:09:38.357Z,90.30
2019-04-01T11:12:01.421Z,90.50
2019-04-01T11:14:34.418Z,90.70
2019-04-01T11:17:07.394Z,88.40
2019-04-01T11:19:40.478Z,88.80
2019-04-01T11:22:13.462Z,90.50
2019-04-01T11:24:46.722Z,90.60
2019-04-01T11:27:19.781Z,88.50
2019-04-01T11:29:52.793Z,86.10
2019-04-01T11:32:25.724Z,86.30
2019-04-01T11:34:59.036Z,86.10
2019-04-01T11:37:32.026Z,85.20
2019-04-01T11:40:09.206Z,85.20
2019-04-01T11:42:40.891Z,86.30
2019-04-01T11:45:14.312Z,85.70
2019-04-01T11:47:47.436Z,86.30
2019-04-01T11:50:20.655Z,85.20
2019-04-01T11:55:27.069Z,83.70
2019-04-01T11:58:00.208Z,83.90
2019-04-01T12:00:33.208Z,84.40
2019-04-01T12:03:06.205Z,83.20
2019-04-01T12:05:39.281Z,82.90
2019-04-01T12:08:12.319Z,80.10
2019-04-01T12:10:45.236Z,80.50
2019-04-01T12:13:18.202Z,80.70
2019-04-01T12:15:51.265Z,82.90
2019-04-01T12:18:24.294Z,80.30
2019-04-01T12:20:57.256Z,79.30
2019-04-01T12:23:30.253Z,79.90
2019-04-01T12:26:14.295Z,80.40
2019-04-01T12:28:37.966Z,78.80
2019-04-01T12:31:12.860Z,78.70
2019-04-01T12:33:45.767Z,81.30
2019-04-01T12:36:19.293Z,83.40
2019-04-01T12:38:53.853Z,79.90
2019-04-01T12:41:27.118Z,78.20
2019-04-01T12:44:00.089Z,79.50
2019-04-01T12:46:33.093Z,79.20
2019-04-01T12:49:06.147Z,76.60
2019-04-01T12:51:39.254Z,78.20
2019-04-01T12:54:12.328Z,77.60
2019-04-01T12:56:45.355Z,77.80
2019-04-01T12:59:18.399Z,79.30
2019-04-01T13:01:51.321Z,78.10
2019-04-01T13:04:24.292Z,75.80
2019-04-01T13:06:58.493Z,75.80
2019-04-01T13:09:31.540Z,76.30
2019-04-01T13:14:39.982Z,73.70
2019-04-01T13:17:11.769Z,69.80
2019-04-01T13:19:45.026Z,70.90
2019-04-01T13:22:18.452Z,70.70
2019-04-01T13:24:51.505Z,69.80
2019-04-01T13:27:24.518Z,69.30
2019-04-01T13:29:57.567Z,69.50
2019-04-01T13:32:30.661Z,69.90
2019-04-01T13:35:04.285Z,70.40
2019-04-01T13:37:37.213Z,70.00
2019-04-01T13:40:10.182Z,70.40
2019-04-01T13:42:43.463Z,70.20
2019-04-01T13:45:16.853Z,69.00
2019-04-01T13:47:49.952Z,68.50
2019-04-01T13:50:22.953Z,67.60
2019-04-01T13:52:57.489Z,66.50
2019-04-01T13:55:30.527Z,67.00
2019-04-01T13:58:03.597Z,70.90
2019-04-01T14:00:36.579Z,69.60
2019-04-01T14:03:11.165Z,68.20
2019-04-01T14:05:44.472Z,68.90
2019-04-01T14:08:17.543Z,68.70
2019-04-01T14:10:50.531Z,67.70
2019-04-01T14:13:23.598Z,68.00
2019-04-01T14:15:56.577Z,67.70
2019-04-01T14:18:29.592Z,68.60
2019-04-01T14:21:15.181Z,66.70
2019-04-01T14:23:37.281Z,66.00
2019-04-01T14:26:10.259Z,66.00
2019-04-01T14:28:43.266Z,65.80
2019-04-01T14:31:19.149Z,64.80
2019-04-01T14:33:50.941Z,65.20
2019-04-01T14:36:23.926Z,65.50
2019-04-01T14:38:56.995Z,66.10
2019-04-01T14:41:30.101Z,66.10
2019-04-01T14:44:03.147Z,66.30
2019-04-01T14:46:36.126Z,66.30
2019-04-01T14:49:09.201Z,67.30
2019-04-01T14:51:42.613Z,67.90
2019-04-01T14:54:15.635Z,67.50
2019-04-01T14:56:48.769Z,65.80
2019-04-01T14:59:21.806Z,66.40
2019-04-01T15:01:54.758Z,65.90
2019-04-01T15:04:27.845Z,67.00
2019-04-01T15:07:00.865Z,67.30
2019-04-01T15:09:34.073Z,66.80
2019-04-01T15:12:07.034Z,66.80
2019-04-01T15:14:40.137Z,65.40
2019-04-01T15:17:13.239Z,65.50
2019-04-01T15:19:48.495Z,65.70
2019-04-01T15:22:20.985Z,66.30
2019-04-01T15:24:54.884Z,69.40
2019-04-01T15:27:27.858Z,67.80
2019-04-01T15:30:00.845Z,68.50
2019-04-01T15:32:33.818Z,70.00
2019-04-01T15:35:06.836Z,68.80
2019-04-01T15:37:39.893Z,67.60
2019-04-01T15:40:13.560Z,68.50
2019-04-01T15:42:46.600Z,69.00
2019-04-01T15:45:19.602Z,69.40
2019-04-01T15:47:52.528Z,69.50
2019-04-01T15:50:28.876Z,69.60
2019-04-01T15:53:00.210Z,69.80
2019-04-01T15:55:33.220Z,70.40
2019-04-01T15:58:06.189Z,68.80
2019-04-01T16:00:39.270Z,69.50
2019-04-01T16:03:12.326Z,70.20
2019-04-01T16:05:45.309Z,69.90
2019-04-01T16:08:18.365Z,70.10
2019-04-01T16:10:51.446Z,69.90
2019-04-01T16:13:24.481Z,69.80
2019-04-01T16:15:57.404Z,70.50
2019-04-01T16:18:31.106Z,71.30
2019-04-01T16:21:04.411Z,70.90
2019-04-01T16:23:37.466Z,70.50
2019-04-01T16:26:10.660Z,70.40
2019-04-01T16:28:43.644Z,70.10
2019-04-01T16:31:16.570Z,70.30
2019-04-01T16:33:49.629Z,70.60
2019-04-01T16:36:22.638Z,70.40
2019-04-01T16:38:55.611Z,70.20
2019-04-01T16:41:28.697Z,71.20
2019-04-01T16:44:01.759Z,69.40
2019-04-01T16:46:34.730Z,68.70
2019-04-01T16:49:07.946Z,68.80
2019-04-01T16:51:41.429Z,68.20
2019-04-01T16:54:14.561Z,68.90
2019-04-01T16:56:47.629Z,68.30
2019-04-01T16:59:20.660Z,67.80
2019-04-01T17:01:53.773Z,66.70
2019-04-01T17:04:26.816Z,67.40
2019-04-01T17:06:59.864Z,66.50
2019-04-01T17:09:32.829Z,66.00
2019-04-01T17:12:05.787Z,65.70
2019-04-01T17:14:38.755Z,66.00
2019-04-01T17:17:11.741Z,66.30
2019-04-01T17:19:44.775Z,65.80
2019-04-01T17:22:17.861Z,67.80
2019-04-01T17:24:50.780Z,68.20
2019-04-01T17:27:23.781Z,70.50
2019-04-01T17:29:56.672Z,68.20
2019-04-01T17:32:29.673Z,68.30
2019-04-01T17:35:02.637Z,68.30
2019-04-01T17:37:35.632Z,68.50
2019-04-01T17:40:09.656Z,69.30
2019-04-01T17:42:42.757Z,69.30
2019-04-01T17:45:33.816Z,69.90
2019-04-01T17:48:07.084Z,70.60
2019-04-01T17:50:40.048Z,71.60
2019-04-01T17:53:13.060Z,71.50
2019-04-01T17:55:48.029Z,71.80
2019-04-01T17:58:20.782Z,72.50
2019-04-01T18:00:53.751Z,72.70
2019-04-01T18:03:26.740Z,73.20
2019-04-01T18:05:59.725Z,73.60
2019-04-01T18:08:34.054Z,73.80
2019-04-01T18:11:07.478Z,74.00
2019-04-01T18:13:40.488Z,74.20
2019-04-01T18:16:14.221Z,74.60
2019-04-01T18:18:47.649Z,74.60
2019-04-01T18:21:20.708Z,75.00
2019-04-01T18:23:54.126Z,75.20
2019-04-01T18:26:27.861Z,75.50
2019-04-01T18:29:00.860Z,76.00
2019-04-01T18:31:33.850Z,76.80
2019-04-01T18:34:06.832Z,77.50
2019-04-01T18:36:39.809Z,78.10
2019-04-01T18:39:12.737Z,78.90
2019-04-01T18:41:45.714Z,79.30
2019-04-01T18:44:18.946Z,80.50
2019-04-01T18:46:52.249Z,82.00
2019-04-01T18:49:26.092Z,81.20
2019-04-01T18:51:59.111Z,81.90
2019-04-01T18:54:32.117Z,82.50
2019-04-01T18:57:05.089Z,83.30
2019-04-01T18:59:38.087Z,83.10
2019-04-01T19:02:11.055Z,84.00
2019-04-01T19:04:44.131Z,84.80
2019-04-01T19:07:17.172Z,85.10
2019-04-01T19:09:50.162Z,86.00
2019-04-01T19:12:23.138Z,86.90
2019-04-01T19:14:56.220Z,87.20
2019-04-01T19:17:29.126Z,87.50
2019-04-01T19:20:02.138Z,87.90
2019-04-01T19:22:35.148Z,88.10
2019-04-01T19:25:08.636Z,89.10
2019-04-01T19:27:41.618Z,90.00
2019-04-01T19:30:14.886Z,90.00
2019-04-01T19:32:48.293Z,90.00
2019-04-01T19:35:21.279Z,89.90
2019-04-01T19:37:54.189Z,90.00
2019-04-01T19:40:27.204Z,90.10
2019-04-01T19:43:03.396Z,90.10
2019-04-01T19:45:34.837Z,90.10
2019-04-01T19:48:07.818Z,90.30
2019-04-01T19:50:40.815Z,90.40
2019-04-01T19:53:13.857Z,90.30
2019-04-01T19:55:46.856Z,90.50
2019-04-01T19:58:19.817Z,90.80
2019-04-01T20:00:52.733Z,90.80
2019-04-01T20:03:25.994Z,90.90
2019-04-01T20:05:59.049Z,91.60
2019-04-01T20:08:32.037Z,91.00
2019-04-01T20:11:04.975Z,91.20
2019-04-01T20:13:39.303Z,91.10
2019-04-01T20:16:13.042Z,91.50
2019-04-01T20:18:46.029Z,91.50
2019-04-01T20:23:54.767Z,91.80
2019-04-01T20:26:26.456Z,92.10
2019-04-01T20:28:59.436Z,92.40
2019-04-01T20:31:32.369Z,92.60
2019-04-01T20:34:05.351Z,92.90
2019-04-01T20:36:38.268Z,93.10
2019-04-01T20:39:11.250Z,93.40
2019-04-01T20:41:44.287Z,93.70
2019-04-01T20:44:17.252Z,94.10
2019-04-01T20:46:50.299Z,94.60
2019-04-01T20:49:23.328Z,94.70
2019-04-01T20:51:56.367Z,94.80
2019-04-01T20:54:29.417Z,94.80
2019-04-01T20:57:05.016Z,94.70
2019-04-01T20:59:37.111Z,95.00
2019-04-01T21:02:10.188Z,95.20
2019-04-01T21:04:43.168Z,95.20
2019-04-01T21:07:16.195Z,95.20
2019-04-01T21:09:49.259Z,95.20
2019-04-01T21:12:22.203Z,95.20
2019-04-01T21:14:56.177Z,95.20
2019-04-01T21:17:29.353Z,95.50
2019-04-01T21:20:02.356Z,95.40
2019-04-01T21:22:36.665Z,95.50
2019-04-01T21:25:10.053Z,95.60
2019-04-01T21:27:43.138Z,95.80
2019-04-01T21:30:16.161Z,96.10
2019-04-01T21:32:49.164Z,96.00
2019-04-01T21:35:22.137Z,96.00
2019-04-01T21:37:55.135Z,96.40
2019-04-01T21:40:28.465Z,96.40
2019-04-01T21:43:03.218Z,96.50
2019-04-01T21:45:36.180Z,96.70
2019-04-01T21:48:10.379Z,96.90
2019-04-01T21:50:43.656Z,97.10
2019-04-01T21:53:16.651Z,97.40
2019-04-01T21:55:50.192Z,97.50
2019-04-01T21:58:23.194Z,98.00
2019-04-01T22:00:56.221Z,98.00
2019-04-01T22:03:29.209Z,98.10
2019-04-01T22:06:02.183Z,98.30
2019-04-01T22:08:36.125Z,98.40
2019-04-01T22:11:09.218Z,98.90
2019-04-01T22:13:42.337Z,98.70
2019-04-01T22:16:15.336Z,98.90
2019-04-01T22:18:48.353Z,99.00
2019-04-01T22:21:21.400Z,98.90
2019-04-01T22:23:54.428Z,99.00
2019-04-01T22:26:28.053Z,99.20
2019-04-01T22:29:01.428Z,99.40
2019-04-01T22:31:34.402Z,99.70
2019-04-01T22:34:08.277Z,99.50
2019-04-01T22:36:42.117Z,99.70
2019-04-01T22:39:21.921Z,99.70
2019-04-01T22:41:49.869Z,99.90
2019-04-01T22:44:23.411Z,99.90
2019-04-01T22:46:56.848Z,99.90
2019-04-01T22:49:29.870Z,99.90
2019-04-01T22:52:02.844Z,99.90
2019-04-01T22:54:35.837Z,99.90
2019-04-01T22:57:08.818Z,99.90
2019-04-01T22:59:41.986Z,99.90
2019-04-01T23:02:14.981Z,99.90
2019-04-01T23:04:47.982Z,99.90
2019-04-01T23:07:20.945Z,99.90
2019-04-01T23:09:54.313Z,99.90
2019-04-01T23:12:27.345Z,99.90
2019-04-01T23:15:00.198Z,99.90
2019-04-01T23:17:33.106Z,99.90
2019-04-01T23:20:06.175Z,99.90
2019-04-01T23:22:39.228Z,99.90
2019-04-01T23:25:12.228Z,99.90
2019-04-01T23:27:45.211Z,99.90
2019-04-01T23:30:19.357Z,99.90
2019-04-01T23:32:52.896Z,99.90
2019-04-01T23:35:25.997Z,99.90
2019-04-01T23:37:58.968Z,99.90
2019-04-01T23:40:32.437Z,99.90
2019-04-01T23:43:05.792Z,99.90
2019-04-01T23:45:38.802Z,99.90
2019-04-01T23:48:11.756Z,99.90
2019-04-01T23:50:44.600Z,99.90
2019-04-01T23:53:17.421Z,99.90
2019-04-01T23:55:50.411Z,99.90
2019-04-01T23:58:23.401Z,99.90
